sensor_id;sensor_type;location;lat;lon;timestamp;P1;durP1;ratioP1;P2;durP2;ratioP2
4980;SDS011;2507;50.392;7.482;2023-06-22T00:00:49;12.07;;;11.07;;
4980;SDS011;2507;50.392;7.482;2023-06-22T00:03:15;10.70;;;9.80;;
4980;SDS011;2507;50.392;7.482;2023-06-22T00:05:42;12.33;;;11.23;;
4980;SDS011;2507;50.392;7.482;2023-06-22T00:08:07;11.70;;;10.80;;
4980;SDS011;2507;50.392;7.482;2023-06-22T00:12:58;11.13;;;10.23;;
4980;SDS011;2507;50.392;7.482;2023-06-22T00:15:23;12.03;;;11.03;;
4980;SDS011;2507;50.392;7.482;2023-06-22T00:17:49;11.73;;;10.73;;
4980;SDS011;2507;50.392;7.482;2023-06-22T00:20:16;11.67;;;10.67;;
4980;SDS011;2507;50.392;7.482;2023-06-22T00:22:43;11.90;;;10.83;;
4980;SDS011;2507;50.392;7.482;2023-06-22T00:25:08;11.10;;;10.10;;
4980;SDS011;2507;50.392;7.482;2023-06-22T00:27:34;11.20;;;10.30;;
4980;SDS011;2507;50.392;7.482;2023-06-22T00:30:00;11.67;;;10.63;;
4980;SDS011;2507;50.392;7.482;2023-06-22T00:32:26;11.40;;;10.50;;
4980;SDS011;2507;50.392;7.482;2023-06-22T00:34:51;12.40;;;11.40;;
4980;SDS011;2507;50.392;7.482;2023-06-22T00:37:17;10.13;;;9.23;;
4980;SDS011;2507;50.392;7.482;2023-06-22T00:39:43;11.30;;;10.27;;
4980;SDS011;2507;50.392;7.482;2023-06-22T00:42:08;11.10;;;10.20;;
4980;SDS011;2507;50.392;7.482;2023-06-22T00:44:37;10.90;;;10.00;;
4980;SDS011;2507;50.392;7.482;2023-06-22T00:47:02;10.83;;;9.93;;
4980;SDS011;2507;50.392;7.482;2023-06-22T00:49:28;9.80;;;9.07;;
4980;SDS011;2507;50.392;7.482;2023-06-22T00:51:54;10.20;;;9.40;;
4980;SDS011;2507;50.392;7.482;2023-06-22T00:54:20;9.80;;;8.90;;
4980;SDS011;2507;50.392;7.482;2023-06-22T00:56:50;12.17;;;11.07;;
4980;SDS011;2507;50.392;7.482;2023-06-22T00:59:20;10.90;;;9.13;;
4980;SDS011;2507;50.392;7.482;2023-06-22T01:01:46;9.30;;;8.60;;
4980;SDS011;2507;50.392;7.482;2023-06-22T01:04:11;10.13;;;9.23;;
4980;SDS011;2507;50.392;7.482;2023-06-22T01:06:38;11.27;;;10.33;;
4980;SDS011;2507;50.392;7.482;2023-06-22T01:09:15;11.43;;;10.43;;
4980;SDS011;2507;50.392;7.482;2023-06-22T01:11:50;11.33;;;10.30;;
4980;SDS011;2507;50.392;7.482;2023-06-22T01:14:42;11.10;;;10.10;;
4980;SDS011;2507;50.392;7.482;2023-06-22T01:17:35;12.47;;;10.63;;
4980;SDS011;2507;50.392;7.482;2023-06-22T01:20:01;11.63;;;10.53;;
4980;SDS011;2507;50.392;7.482;2023-06-22T01:22:30;12.00;;;10.10;;
4980;SDS011;2507;50.392;7.482;2023-06-22T01:25:11;12.80;;;10.93;;
4980;SDS011;2507;50.392;7.482;2023-06-22T01:27:51;12.23;;;11.13;;
4980;SDS011;2507;50.392;7.482;2023-06-22T01:30:25;11.10;;;9.90;;
4980;SDS011;2507;50.392;7.482;2023-06-22T01:32:54;11.93;;;10.90;;
4980;SDS011;2507;50.392;7.482;2023-06-22T01:35:21;12.43;;;11.43;;
4980;SDS011;2507;50.392;7.482;2023-06-22T01:37:48;12.20;;;10.57;;
4980;SDS011;2507;50.392;7.482;2023-06-22T01:40:14;12.63;;;10.93;;
4980;SDS011;2507;50.392;7.482;2023-06-22T01:42:41;10.77;;;9.90;;
4980;SDS011;2507;50.392;7.482;2023-06-22T01:45:08;11.90;;;10.90;;
4980;SDS011;2507;50.392;7.482;2023-06-22T01:47:35;13.30;;;12.17;;
4980;SDS011;2507;50.392;7.482;2023-06-22T01:50:00;11.40;;;10.40;;
4980;SDS011;2507;50.392;7.482;2023-06-22T01:52:26;13.27;;;11.90;;
4980;SDS011;2507;50.392;7.482;2023-06-22T01:54:51;12.23;;;11.30;;
4980;SDS011;2507;50.392;7.482;2023-06-22T01:57:17;12.30;;;11.23;;
4980;SDS011;2507;50.392;7.482;2023-06-22T02:02:09;12.43;;;11.43;;
4980;SDS011;2507;50.392;7.482;2023-06-22T02:04:42;11.37;;;10.40;;
4980;SDS011;2507;50.392;7.482;2023-06-22T02:07:13;12.13;;;11.13;;
4980;SDS011;2507;50.392;7.482;2023-06-22T02:09:42;11.20;;;10.30;;
4980;SDS011;2507;50.392;7.482;2023-06-22T02:12:10;11.47;;;10.47;;
4980;SDS011;2507;50.392;7.482;2023-06-22T02:14:37;11.00;;;10.20;;
4980;SDS011;2507;50.392;7.482;2023-06-22T02:17:04;10.30;;;9.47;;
4980;SDS011;2507;50.392;7.482;2023-06-22T02:19:32;12.27;;;10.27;;
4980;SDS011;2507;50.392;7.482;2023-06-22T02:22:01;10.37;;;9.50;;
4980;SDS011;2507;50.392;7.482;2023-06-22T02:24:27;10.10;;;9.27;;
4980;SDS011;2507;50.392;7.482;2023-06-22T02:26:55;11.13;;;10.20;;
4980;SDS011;2507;50.392;7.482;2023-06-22T02:29:22;12.03;;;10.93;;
4980;SDS011;2507;50.392;7.482;2023-06-22T02:31:47;13.00;;;9.83;;
4980;SDS011;2507;50.392;7.482;2023-06-22T02:34:13;11.47;;;10.47;;
4980;SDS011;2507;50.392;7.482;2023-06-22T02:36:43;12.30;;;11.20;;
4980;SDS011;2507;50.392;7.482;2023-06-22T02:39:19;11.47;;;10.47;;
4980;SDS011;2507;50.392;7.482;2023-06-22T02:41:47;14.00;;;12.50;;
4980;SDS011;2507;50.392;7.482;2023-06-22T02:44:13;12.13;;;11.10;;
4980;SDS011;2507;50.392;7.482;2023-06-22T02:46:38;12.80;;;11.50;;
4980;SDS011;2507;50.392;7.482;2023-06-22T02:49:04;11.90;;;11.00;;
4980;SDS011;2507;50.392;7.482;2023-06-22T02:51:30;13.40;;;11.53;;
4980;SDS011;2507;50.392;7.482;2023-06-22T02:53:58;12.40;;;11.30;;
4980;SDS011;2507;50.392;7.482;2023-06-22T02:56:24;11.43;;;10.40;;
4980;SDS011;2507;50.392;7.482;2023-06-22T02:58:49;11.83;;;10.90;;
4980;SDS011;2507;50.392;7.482;2023-06-22T03:01:15;11.83;;;10.90;;
4980;SDS011;2507;50.392;7.482;2023-06-22T03:03:40;11.33;;;10.30;;
4980;SDS011;2507;50.392;7.482;2023-06-22T03:06:05;12.23;;;11.23;;
4980;SDS011;2507;50.392;7.482;2023-06-22T03:08:31;11.97;;;10.97;;
4980;SDS011;2507;50.392;7.482;2023-06-22T03:10:56;11.13;;;10.23;;
4980;SDS011;2507;50.392;7.482;2023-06-22T03:13:21;11.30;;;10.30;;
4980;SDS011;2507;50.392;7.482;2023-06-22T03:15:47;11.63;;;10.53;;
4980;SDS011;2507;50.392;7.482;2023-06-22T03:18:13;11.17;;;10.17;;
4980;SDS011;2507;50.392;7.482;2023-06-22T03:20:38;11.47;;;10.50;;
4980;SDS011;2507;50.392;7.482;2023-06-22T03:23:04;11.03;;;9.93;;
4980;SDS011;2507;50.392;7.482;2023-06-22T03:25:30;13.73;;;10.50;;
4980;SDS011;2507;50.392;7.482;2023-06-22T03:27:55;12.00;;;11.00;;
4980;SDS011;2507;50.392;7.482;2023-06-22T03:30:20;12.40;;;11.33;;
4980;SDS011;2507;50.392;7.482;2023-06-22T03:32:46;12.30;;;11.20;;
4980;SDS011;2507;50.392;7.482;2023-06-22T03:35:11;11.33;;;10.43;;
4980;SDS011;2507;50.392;7.482;2023-06-22T03:37:38;12.23;;;11.33;;
4980;SDS011;2507;50.392;7.482;2023-06-22T03:40:04;13.50;;;12.20;;
4980;SDS011;2507;50.392;7.482;2023-06-22T03:42:30;12.67;;;11.33;;
4980;SDS011;2507;50.392;7.482;2023-06-22T03:44:56;12.33;;;10.50;;
4980;SDS011;2507;50.392;7.482;2023-06-22T03:47:21;13.37;;;10.73;;
4980;SDS011;2507;50.392;7.482;2023-06-22T03:49:47;9.73;;;9.03;;
4980;SDS011;2507;50.392;7.482;2023-06-22T03:52:12;11.73;;;10.63;;
4980;SDS011;2507;50.392;7.482;2023-06-22T03:54:38;11.70;;;10.60;;
4980;SDS011;2507;50.392;7.482;2023-06-22T03:57:03;10.27;;;9.47;;
4980;SDS011;2507;50.392;7.482;2023-06-22T03:59:29;11.60;;;10.60;;
4980;SDS011;2507;50.392;7.482;2023-06-22T04:01:54;11.67;;;10.67;;
4980;SDS011;2507;50.392;7.482;2023-06-22T04:04:19;11.83;;;10.80;;
4980;SDS011;2507;50.392;7.482;2023-06-22T04:06:45;11.40;;;10.43;;
4980;SDS011;2507;50.392;7.482;2023-06-22T04:09:10;11.83;;;10.50;;
4980;SDS011;2507;50.392;7.482;2023-06-22T04:11:36;16.13;;;11.17;;
4980;SDS011;2507;50.392;7.482;2023-06-22T04:14:01;13.47;;;12.17;;
4980;SDS011;2507;50.392;7.482;2023-06-22T04:16:26;14.37;;;12.97;;
4980;SDS011;2507;50.392;7.482;2023-06-22T04:18:51;12.47;;;11.40;;
4980;SDS011;2507;50.392;7.482;2023-06-22T04:21:17;12.23;;;11.13;;
4980;SDS011;2507;50.392;7.482;2023-06-22T04:23:44;11.63;;;10.73;;
4980;SDS011;2507;50.392;7.482;2023-06-22T04:26:10;11.20;;;10.23;;
4980;SDS011;2507;50.392;7.482;2023-06-22T04:28:36;12.40;;;11.40;;
4980;SDS011;2507;50.392;7.482;2023-06-22T04:31:02;12.73;;;11.00;;
4980;SDS011;2507;50.392;7.482;2023-06-22T04:33:28;14.63;;;11.60;;
4980;SDS011;2507;50.392;7.482;2023-06-22T04:35:57;13.57;;;10.90;;
4980;SDS011;2507;50.392;7.482;2023-06-22T04:38:23;13.10;;;11.90;;
4980;SDS011;2507;50.392;7.482;2023-06-22T04:40:49;12.43;;;10.90;;
4980;SDS011;2507;50.392;7.482;2023-06-22T04:43:15;11.60;;;10.70;;
4980;SDS011;2507;50.392;7.482;2023-06-22T04:45:41;12.13;;;11.20;;
4980;SDS011;2507;50.392;7.482;2023-06-22T04:48:06;12.00;;;11.10;;
4980;SDS011;2507;50.392;7.482;2023-06-22T04:50:33;14.80;;;11.57;;
4980;SDS011;2507;50.392;7.482;2023-06-22T04:52:58;10.43;;;9.53;;
4980;SDS011;2507;50.392;7.482;2023-06-22T04:55:24;12.07;;;10.37;;
4980;SDS011;2507;50.392;7.482;2023-06-22T04:57:50;11.20;;;10.00;;
4980;SDS011;2507;50.392;7.482;2023-06-22T05:00:16;11.80;;;10.80;;
4980;SDS011;2507;50.392;7.482;2023-06-22T05:02:44;11.50;;;10.37;;
4980;SDS011;2507;50.392;7.482;2023-06-22T05:05:11;14.07;;;10.10;;
4980;SDS011;2507;50.392;7.482;2023-06-22T05:07:44;12.03;;;11.00;;
4980;SDS011;2507;50.392;7.482;2023-06-22T05:10:12;11.77;;;10.77;;
4980;SDS011;2507;50.392;7.482;2023-06-22T05:12:38;11.47;;;10.23;;
4980;SDS011;2507;50.392;7.482;2023-06-22T05:15:05;10.63;;;9.57;;
4980;SDS011;2507;50.392;7.482;2023-06-22T05:17:31;11.00;;;10.00;;
4980;SDS011;2507;50.392;7.482;2023-06-22T05:19:57;11.20;;;10.07;;
4980;SDS011;2507;50.392;7.482;2023-06-22T05:22:22;10.13;;;9.33;;
4980;SDS011;2507;50.392;7.482;2023-06-22T05:24:47;10.03;;;9.10;;
4980;SDS011;2507;50.392;7.482;2023-06-22T05:27:13;11.43;;;9.20;;
4980;SDS011;2507;50.392;7.482;2023-06-22T05:29:39;9.97;;;9.10;;
4980;SDS011;2507;50.392;7.482;2023-06-22T05:32:04;9.33;;;8.40;;
4980;SDS011;2507;50.392;7.482;2023-06-22T05:34:30;9.10;;;8.27;;
4980;SDS011;2507;50.392;7.482;2023-06-22T05:36:55;9.73;;;8.70;;
4980;SDS011;2507;50.392;7.482;2023-06-22T05:39:21;9.73;;;8.23;;
4980;SDS011;2507;50.392;7.482;2023-06-22T05:41:46;8.73;;;8.03;;
4980;SDS011;2507;50.392;7.482;2023-06-22T05:44:11;9.47;;;8.73;;
4980;SDS011;2507;50.392;7.482;2023-06-22T05:46:37;9.30;;;8.33;;
4980;SDS011;2507;50.392;7.482;2023-06-22T05:49:09;10.17;;;9.10;;
4980;SDS011;2507;50.392;7.482;2023-06-22T05:51:36;9.93;;;8.70;;
4980;SDS011;2507;50.392;7.482;2023-06-22T05:54:01;9.10;;;8.30;;
4980;SDS011;2507;50.392;7.482;2023-06-22T05:56:26;11.97;;;9.23;;
4980;SDS011;2507;50.392;7.482;2023-06-22T05:58:51;8.30;;;7.37;;
4980;SDS011;2507;50.392;7.482;2023-06-22T06:01:17;8.30;;;7.60;;
4980;SDS011;2507;50.392;7.482;2023-06-22T06:03:42;7.63;;;6.90;;
4980;SDS011;2507;50.392;7.482;2023-06-22T06:06:07;7.67;;;7.00;;
4980;SDS011;2507;50.392;7.482;2023-06-22T06:08:33;10.63;;;7.40;;
4980;SDS011;2507;50.392;7.482;2023-06-22T06:10:58;8.67;;;7.47;;
4980;SDS011;2507;50.392;7.482;2023-06-22T06:13:23;8.27;;;7.57;;
4980;SDS011;2507;50.392;7.482;2023-06-22T06:15:49;15.77;;;7.67;;
4980;SDS011;2507;50.392;7.482;2023-06-22T06:18:16;8.43;;;7.63;;
4980;SDS011;2507;50.392;7.482;2023-06-22T06:20:42;7.00;;;6.40;;
4980;SDS011;2507;50.392;7.482;2023-06-22T06:23:07;7.70;;;7.20;;
4980;SDS011;2507;50.392;7.482;2023-06-22T06:25:33;8.77;;;6.57;;
4980;SDS011;2507;50.392;7.482;2023-06-22T06:27:58;7.67;;;7.00;;
4980;SDS011;2507;50.392;7.482;2023-06-22T06:30:23;7.83;;;7.23;;
4980;SDS011;2507;50.392;7.482;2023-06-22T06:32:49;9.10;;;8.30;;
4980;SDS011;2507;50.392;7.482;2023-06-22T06:35:15;8.27;;;7.67;;
4980;SDS011;2507;50.392;7.482;2023-06-22T06:37:44;8.03;;;7.33;;
4980;SDS011;2507;50.392;7.482;2023-06-22T06:40:11;8.80;;;8.10;;
4980;SDS011;2507;50.392;7.482;2023-06-22T06:42:37;7.40;;;6.90;;
4980;SDS011;2507;50.392;7.482;2023-06-22T06:45:05;9.40;;;8.60;;
4980;SDS011;2507;50.392;7.482;2023-06-22T06:47:31;9.10;;;8.30;;
4980;SDS011;2507;50.392;7.482;2023-06-22T06:49:56;9.03;;;8.23;;
4980;SDS011;2507;50.392;7.482;2023-06-22T06:52:22;9.13;;;8.33;;
4980;SDS011;2507;50.392;7.482;2023-06-22T06:54:47;9.37;;;8.47;;
4980;SDS011;2507;50.392;7.482;2023-06-22T06:57:12;8.33;;;7.63;;
4980;SDS011;2507;50.392;7.482;2023-06-22T06:59:38;9.07;;;8.37;;
4980;SDS011;2507;50.392;7.482;2023-06-22T07:02:04;8.83;;;8.03;;
4980;SDS011;2507;50.392;7.482;2023-06-22T07:04:29;8.83;;;8.13;;
4980;SDS011;2507;50.392;7.482;2023-06-22T07:06:55;8.80;;;8.10;;
4980;SDS011;2507;50.392;7.482;2023-06-22T07:09:20;8.90;;;8.07;;
4980;SDS011;2507;50.392;7.482;2023-06-22T07:11:45;8.33;;;7.20;;
4980;SDS011;2507;50.392;7.482;2023-06-22T07:14:10;9.07;;;8.20;;
4980;SDS011;2507;50.392;7.482;2023-06-22T07:16:36;9.33;;;8.53;;
4980;SDS011;2507;50.392;7.482;2023-06-22T07:19:01;9.30;;;8.50;;
4980;SDS011;2507;50.392;7.482;2023-06-22T07:21:26;7.27;;;6.77;;
4980;SDS011;2507;50.392;7.482;2023-06-22T07:23:52;8.30;;;7.20;;
4980;SDS011;2507;50.392;7.482;2023-06-22T07:26:17;11.90;;;7.80;;
4980;SDS011;2507;50.392;7.482;2023-06-22T07:28:42;8.40;;;7.20;;
4980;SDS011;2507;50.392;7.482;2023-06-22T07:31:07;7.63;;;7.03;;
4980;SDS011;2507;50.392;7.482;2023-06-22T07:33:33;9.17;;;6.40;;
4980;SDS011;2507;50.392;7.482;2023-06-22T07:35:58;9.50;;;7.10;;
4980;SDS011;2507;50.392;7.482;2023-06-22T07:38:23;7.80;;;7.00;;
4980;SDS011;2507;50.392;7.482;2023-06-22T07:40:48;7.47;;;6.80;;
4980;SDS011;2507;50.392;7.482;2023-06-22T07:43:15;7.67;;;6.97;;
4980;SDS011;2507;50.392;7.482;2023-06-22T07:45:41;5.10;;;4.80;;
4980;SDS011;2507;50.392;7.482;2023-06-22T07:48:17;6.93;;;6.22;;
4980;SDS011;2507;50.392;7.482;2023-06-22T07:50:43;9.15;;;6.00;;
4980;SDS011;2507;50.392;7.482;2023-06-22T07:53:08;6.53;;;6.03;;
4980;SDS011;2507;50.392;7.482;2023-06-22T07:55:34;6.40;;;5.78;;
4980;SDS011;2507;50.392;7.482;2023-06-22T07:57:59;6.95;;;6.32;;
4980;SDS011;2507;50.392;7.482;2023-06-22T08:00:24;6.47;;;5.95;;
4980;SDS011;2507;50.392;7.482;2023-06-22T08:02:49;9.67;;;7.17;;
4980;SDS011;2507;50.392;7.482;2023-06-22T08:05:15;7.77;;;6.97;;
4980;SDS011;2507;50.392;7.482;2023-06-22T08:07:40;9.10;;;6.50;;
4980;SDS011;2507;50.392;7.482;2023-06-22T08:10:09;6.23;;;5.83;;
4980;SDS011;2507;50.392;7.482;2023-06-22T08:12:36;5.78;;;5.32;;
4980;SDS011;2507;50.392;7.482;2023-06-22T08:15:01;7.05;;;5.80;;
4980;SDS011;2507;50.392;7.482;2023-06-22T08:17:26;7.43;;;6.65;;
4980;SDS011;2507;50.392;7.482;2023-06-22T08:19:51;7.07;;;6.47;;
4980;SDS011;2507;50.392;7.482;2023-06-22T08:22:17;6.80;;;6.03;;
4980;SDS011;2507;50.392;7.482;2023-06-22T08:24:43;6.80;;;6.20;;
4980;SDS011;2507;50.392;7.482;2023-06-22T08:27:09;7.03;;;6.40;;
4980;SDS011;2507;50.392;7.482;2023-06-22T08:29:36;6.10;;;5.70;;
4980;SDS011;2507;50.392;7.482;2023-06-22T08:32:02;7.60;;;6.53;;
4980;SDS011;2507;50.392;7.482;2023-06-22T08:34:27;7.70;;;7.00;;
4980;SDS011;2507;50.392;7.482;2023-06-22T08:36:53;12.23;;;6.97;;
4980;SDS011;2507;50.392;7.482;2023-06-22T08:39:19;6.73;;;6.33;;
4980;SDS011;2507;50.392;7.482;2023-06-22T08:41:45;10.27;;;6.97;;
4980;SDS011;2507;50.392;7.482;2023-06-22T08:44:13;8.40;;;7.70;;
4980;SDS011;2507;50.392;7.482;2023-06-22T08:46:39;7.30;;;6.63;;
4980;SDS011;2507;50.392;7.482;2023-06-22T08:49:05;8.50;;;7.53;;
4980;SDS011;2507;50.392;7.482;2023-06-22T08:51:31;7.87;;;7.23;;
4980;SDS011;2507;50.392;7.482;2023-06-22T08:53:57;8.20;;;7.50;;
4980;SDS011;2507;50.392;7.482;2023-06-22T08:56:22;8.30;;;7.70;;
4980;SDS011;2507;50.392;7.482;2023-06-22T08:58:48;9.30;;;8.47;;
4980;SDS011;2507;50.392;7.482;2023-06-22T09:01:13;7.10;;;6.60;;
4980;SDS011;2507;50.392;7.482;2023-06-22T09:03:40;7.43;;;6.87;;
4980;SDS011;2507;50.392;7.482;2023-06-22T09:06:05;7.80;;;7.30;;
4980;SDS011;2507;50.392;7.482;2023-06-22T09:08:30;8.33;;;7.73;;
4980;SDS011;2507;50.392;7.482;2023-06-22T09:10:56;9.23;;;8.63;;
4980;SDS011;2507;50.392;7.482;2023-06-22T09:13:21;8.80;;;8.00;;
4980;SDS011;2507;50.392;7.482;2023-06-22T09:15:47;8.20;;;7.47;;
4980;SDS011;2507;50.392;7.482;2023-06-22T09:18:13;9.30;;;8.60;;
4980;SDS011;2507;50.392;7.482;2023-06-22T09:20:38;9.30;;;8.50;;
4980;SDS011;2507;50.392;7.482;2023-06-22T09:23:04;9.03;;;8.23;;
4980;SDS011;2507;50.392;7.482;2023-06-22T09:25:29;8.70;;;8.00;;
4980;SDS011;2507;50.392;7.482;2023-06-22T09:27:55;8.67;;;8.03;;
4980;SDS011;2507;50.392;7.482;2023-06-22T09:30:20;9.73;;;8.70;;
4980;SDS011;2507;50.392;7.482;2023-06-22T09:32:45;9.00;;;8.20;;
4980;SDS011;2507;50.392;7.482;2023-06-22T09:35:11;8.97;;;8.20;;
4980;SDS011;2507;50.392;7.482;2023-06-22T09:37:38;9.60;;;8.60;;
4980;SDS011;2507;50.392;7.482;2023-06-22T09:40:03;10.27;;;9.03;;
4980;SDS011;2507;50.392;7.482;2023-06-22T09:42:41;8.50;;;7.83;;
4980;SDS011;2507;50.392;7.482;2023-06-22T09:45:06;9.27;;;8.17;;
4980;SDS011;2507;50.392;7.482;2023-06-22T09:47:32;10.13;;;9.23;;
4980;SDS011;2507;50.392;7.482;2023-06-22T09:49:57;14.33;;;9.77;;
4980;SDS011;2507;50.392;7.482;2023-06-22T09:52:24;10.20;;;9.30;;
4980;SDS011;2507;50.392;7.482;2023-06-22T09:54:49;14.27;;;9.50;;
4980;SDS011;2507;50.392;7.482;2023-06-22T09:57:15;9.77;;;8.93;;
4980;SDS011;2507;50.392;7.482;2023-06-22T09:59:40;9.77;;;8.97;;
4980;SDS011;2507;50.392;7.482;2023-06-22T10:02:06;9.30;;;8.60;;
4980;SDS011;2507;50.392;7.482;2023-06-22T10:04:33;10.20;;;9.27;;
4980;SDS011;2507;50.392;7.482;2023-06-22T10:06:59;8.83;;;8.10;;
4980;SDS011;2507;50.392;7.482;2023-06-22T10:09:24;9.90;;;8.97;;
4980;SDS011;2507;50.392;7.482;2023-06-22T10:11:49;10.03;;;9.23;;
4980;SDS011;2507;50.392;7.482;2023-06-22T10:14:14;11.93;;;9.17;;
4980;SDS011;2507;50.392;7.482;2023-06-22T10:16:40;10.50;;;9.40;;
4980;SDS011;2507;50.392;7.482;2023-06-22T10:19:06;9.60;;;8.70;;
4980;SDS011;2507;50.392;7.482;2023-06-22T10:21:31;10.20;;;9.17;;
4980;SDS011;2507;50.392;7.482;2023-06-22T10:23:57;9.40;;;8.70;;
4980;SDS011;2507;50.392;7.482;2023-06-22T10:26:24;9.00;;;8.30;;
4980;SDS011;2507;50.392;7.482;2023-06-22T10:28:50;9.60;;;8.80;;
4980;SDS011;2507;50.392;7.482;2023-06-22T10:31:15;9.80;;;8.90;;
4980;SDS011;2507;50.392;7.482;2023-06-22T10:33:41;10.97;;;9.90;;
4980;SDS011;2507;50.392;7.482;2023-06-22T10:36:08;13.20;;;11.80;;
4980;SDS011;2507;50.392;7.482;2023-06-22T10:38:34;11.07;;;10.13;;
4980;SDS011;2507;50.392;7.482;2023-06-22T10:40:59;11.80;;;10.80;;
4980;SDS011;2507;50.392;7.482;2023-06-22T10:43:25;16.80;;;11.27;;
4980;SDS011;2507;50.392;7.482;2023-06-22T10:45:50;11.67;;;10.57;;
4980;SDS011;2507;50.392;7.482;2023-06-22T10:48:15;9.87;;;8.97;;
4980;SDS011;2507;50.392;7.482;2023-06-22T10:50:40;10.93;;;9.93;;
4980;SDS011;2507;50.392;7.482;2023-06-22T10:53:06;10.63;;;9.57;;
4980;SDS011;2507;50.392;7.482;2023-06-22T10:55:31;10.93;;;9.87;;
4980;SDS011;2507;50.392;7.482;2023-06-22T10:57:56;9.57;;;8.87;;
4980;SDS011;2507;50.392;7.482;2023-06-22T11:00:22;11.40;;;8.90;;
4980;SDS011;2507;50.392;7.482;2023-06-22T11:02:47;10.97;;;8.80;;
4980;SDS011;2507;50.392;7.482;2023-06-22T11:05:12;9.13;;;8.27;;
4980;SDS011;2507;50.392;7.482;2023-06-22T11:07:40;9.40;;;8.60;;
4980;SDS011;2507;50.392;7.482;2023-06-22T11:10:07;9.27;;;8.40;;
4980;SDS011;2507;50.392;7.482;2023-06-22T11:12:32;9.03;;;8.43;;
4980;SDS011;2507;50.392;7.482;2023-06-22T11:14:58;10.00;;;8.43;;
4980;SDS011;2507;50.392;7.482;2023-06-22T11:17:23;8.67;;;7.97;;
4980;SDS011;2507;50.392;7.482;2023-06-22T11:19:48;11.07;;;10.00;;
4980;SDS011;2507;50.392;7.482;2023-06-22T11:22:14;9.50;;;8.70;;
4980;SDS011;2507;50.392;7.482;2023-06-22T11:24:39;10.90;;;9.90;;
4980;SDS011;2507;50.392;7.482;2023-06-22T11:27:04;11.07;;;9.57;;
4980;SDS011;2507;50.392;7.482;2023-06-22T11:29:30;11.77;;;9.80;;
4980;SDS011;2507;50.392;7.482;2023-06-22T11:31:55;10.57;;;9.57;;
4980;SDS011;2507;50.392;7.482;2023-06-22T11:34:21;12.00;;;10.90;;
4980;SDS011;2507;50.392;7.482;2023-06-22T11:36:46;11.77;;;10.20;;
4980;SDS011;2507;50.392;7.482;2023-06-22T11:39:13;10.60;;;9.60;;
4980;SDS011;2507;50.392;7.482;2023-06-22T11:41:39;11.40;;;10.30;;
4980;SDS011;2507;50.392;7.482;2023-06-22T11:44:05;11.30;;;10.20;;
4980;SDS011;2507;50.392;7.482;2023-06-22T11:46:30;11.07;;;10.17;;
4980;SDS011;2507;50.392;7.482;2023-06-22T11:48:57;11.83;;;10.83;;
4980;SDS011;2507;50.392;7.482;2023-06-22T11:51:23;9.60;;;8.90;;
4980;SDS011;2507;50.392;7.482;2023-06-22T11:53:48;10.03;;;9.30;;
4980;SDS011;2507;50.392;7.482;2023-06-22T11:56:13;9.47;;;8.77;;
4980;SDS011;2507;50.392;7.482;2023-06-22T11:58:38;9.87;;;9.17;;
4980;SDS011;2507;50.392;7.482;2023-06-22T12:01:04;9.80;;;8.90;;
4980;SDS011;2507;50.392;7.482;2023-06-22T12:03:30;12.20;;;9.70;;
4980;SDS011;2507;50.392;7.482;2023-06-22T12:05:55;10.17;;;9.13;;
4980;SDS011;2507;50.392;7.482;2023-06-22T12:08:21;10.40;;;8.80;;
4980;SDS011;2507;50.392;7.482;2023-06-22T12:10:46;7.60;;;6.93;;
4980;SDS011;2507;50.392;7.482;2023-06-22T12:13:11;6.50;;;6.07;;
4980;SDS011;2507;50.392;7.482;2023-06-22T12:15:37;8.70;;;7.80;;
4980;SDS011;2507;50.392;7.482;2023-06-22T12:18:03;8.17;;;7.43;;
4980;SDS011;2507;50.392;7.482;2023-06-22T12:20:28;8.17;;;7.63;;
4980;SDS011;2507;50.392;7.482;2023-06-22T12:22:54;7.93;;;7.30;;
4980;SDS011;2507;50.392;7.482;2023-06-22T12:25:21;10.40;;;9.50;;
4980;SDS011;2507;50.392;7.482;2023-06-22T12:27:47;8.77;;;8.00;;
4980;SDS011;2507;50.392;7.482;2023-06-22T12:30:12;8.63;;;8.03;;
4980;SDS011;2507;50.392;7.482;2023-06-22T12:32:38;7.93;;;7.23;;
4980;SDS011;2507;50.392;7.482;2023-06-22T12:35:03;9.13;;;8.23;;
4980;SDS011;2507;50.392;7.482;2023-06-22T12:37:29;8.60;;;7.80;;
4980;SDS011;2507;50.392;7.482;2023-06-22T12:39:56;8.23;;;7.53;;
4980;SDS011;2507;50.392;7.482;2023-06-22T12:42:22;10.53;;;8.70;;
4980;SDS011;2507;50.392;7.482;2023-06-22T12:44:47;8.37;;;7.63;;
4980;SDS011;2507;50.392;7.482;2023-06-22T12:47:12;9.13;;;8.33;;
4980;SDS011;2507;50.392;7.482;2023-06-22T12:49:38;8.50;;;7.80;;
4980;SDS011;2507;50.392;7.482;2023-06-22T12:52:08;8.60;;;7.90;;
4980;SDS011;2507;50.392;7.482;2023-06-22T12:54:34;7.87;;;7.37;;
4980;SDS011;2507;50.392;7.482;2023-06-22T12:56:59;9.30;;;7.73;;
4980;SDS011;2507;50.392;7.482;2023-06-22T12:59:25;9.27;;;7.83;;
4980;SDS011;2507;50.392;7.482;2023-06-22T13:01:50;9.00;;;8.13;;
4980;SDS011;2507;50.392;7.482;2023-06-22T13:04:15;9.87;;;7.90;;
4980;SDS011;2507;50.392;7.482;2023-06-22T13:06:41;8.77;;;8.17;;
4980;SDS011;2507;50.392;7.482;2023-06-22T13:09:07;8.27;;;7.57;;
4980;SDS011;2507;50.392;7.482;2023-06-22T13:11:33;9.30;;;8.40;;
4980;SDS011;2507;50.392;7.482;2023-06-22T13:13:59;8.87;;;8.00;;
4980;SDS011;2507;50.392;7.482;2023-06-22T13:16:24;9.03;;;8.33;;
4980;SDS011;2507;50.392;7.482;2023-06-22T13:18:49;9.10;;;8.40;;
4980;SDS011;2507;50.392;7.482;2023-06-22T13:21:15;8.97;;;8.27;;
4980;SDS011;2507;50.392;7.482;2023-06-22T13:23:40;8.97;;;8.17;;
4980;SDS011;2507;50.392;7.482;2023-06-22T13:26:07;9.57;;;7.33;;
4980;SDS011;2507;50.392;7.482;2023-06-22T13:28:33;7.57;;;7.07;;
4980;SDS011;2507;50.392;7.482;2023-06-22T13:30:58;12.03;;;7.50;;
4980;SDS011;2507;50.392;7.482;2023-06-22T13:33:23;9.20;;;7.70;;
4980;SDS011;2507;50.392;7.482;2023-06-22T13:35:49;11.93;;;7.90;;
4980;SDS011;2507;50.392;7.482;2023-06-22T13:38:14;8.13;;;7.50;;
4980;SDS011;2507;50.392;7.482;2023-06-22T13:40:40;8.23;;;7.63;;
4980;SDS011;2507;50.392;7.482;2023-06-22T13:43:05;7.93;;;7.33;;
4980;SDS011;2507;50.392;7.482;2023-06-22T13:45:31;8.27;;;7.50;;
4980;SDS011;2507;50.392;7.482;2023-06-22T13:47:56;8.23;;;7.53;;
4980;SDS011;2507;50.392;7.482;2023-06-22T13:50:22;8.70;;;7.80;;
4980;SDS011;2507;50.392;7.482;2023-06-22T13:52:47;8.00;;;7.30;;
4980;SDS011;2507;50.392;7.482;2023-06-22T13:55:13;8.90;;;8.10;;
4980;SDS011;2507;50.392;7.482;2023-06-22T13:57:39;10.23;;;8.03;;
4980;SDS011;2507;50.392;7.482;2023-06-22T14:00:05;8.83;;;8.13;;
4980;SDS011;2507;50.392;7.482;2023-06-22T14:02:33;10.50;;;9.57;;
4980;SDS011;2507;50.392;7.482;2023-06-22T14:04:59;9.63;;;8.73;;
4980;SDS011;2507;50.392;7.482;2023-06-22T14:07:24;9.63;;;8.17;;
4980;SDS011;2507;50.392;7.482;2023-06-22T14:09:50;12.37;;;8.87;;
4980;SDS011;2507;50.392;7.482;2023-06-22T14:12:15;9.63;;;8.83;;
4980;SDS011;2507;50.392;7.482;2023-06-22T14:14:42;11.60;;;10.47;;
4980;SDS011;2507;50.392;7.482;2023-06-22T14:17:08;9.87;;;8.87;;
4980;SDS011;2507;50.392;7.482;2023-06-22T14:19:34;9.40;;;6.77;;
4980;SDS011;2507;50.392;7.482;2023-06-22T14:21:59;9.93;;;5.83;;
4980;SDS011;2507;50.392;7.482;2023-06-22T14:24:24;12.00;;;4.17;;
4980;SDS011;2507;50.392;7.482;2023-06-22T14:26:50;13.20;;;3.87;;
4980;SDS011;2507;50.392;7.482;2023-06-22T14:29:15;15.30;;;5.60;;
4980;SDS011;2507;50.392;7.482;2023-06-22T14:31:44;13.80;;;5.10;;
4980;SDS011;2507;50.392;7.482;2023-06-22T14:34:10;17.30;;;6.17;;
4980;SDS011;2507;50.392;7.482;2023-06-22T14:36:36;11.73;;;5.30;;
4980;SDS011;2507;50.392;7.482;2023-06-22T14:39:01;12.23;;;5.60;;
4980;SDS011;2507;50.392;7.482;2023-06-22T14:41:26;9.67;;;5.43;;
4980;SDS011;2507;50.392;7.482;2023-06-22T14:43:52;16.47;;;7.50;;
4980;SDS011;2507;50.392;7.482;2023-06-22T14:46:18;13.77;;;6.53;;
4980;SDS011;2507;50.392;7.482;2023-06-22T14:48:44;11.33;;;4.97;;
4980;SDS011;2507;50.392;7.482;2023-06-22T14:51:10;10.50;;;5.50;;
4980;SDS011;2507;50.392;7.482;2023-06-22T14:53:36;8.50;;;5.50;;
4980;SDS011;2507;50.392;7.482;2023-06-22T14:56:02;7.83;;;4.87;;
4980;SDS011;2507;50.392;7.482;2023-06-22T14:58:28;10.80;;;5.67;;
4980;SDS011;2507;50.392;7.482;2023-06-22T15:01:01;8.23;;;5.90;;